Photometre #842[NE_1.6] Lille AOT

File : 20221125_842.hum

25/11/2022,08:31:41,TEMP=8.4,BA=5.68,STAT.A=0.5,ExtBa=13.17
25/11/2022,08:34:43,TEMP=8.6,BA=5.68,STAT.F,ExtBa=13.04
25/11/2022,08:45:20,TEMP=9.1,BA=5.60,STAT.h
25/11/2022,08:49:42,TEMP=9.1,BA=5.60,STAT.D=0.5,ExtBa=12.87
25/11/2022,09:04:42,TEMP=9.0,BA=5.68,STAT.D=0.5,ExtBa=13.05
25/11/2022,09:19:42,TEMP=8.8,BA=5.68,STAT.D=1.0,ExtBa=13.09
25/11/2022,09:34:44,TEMP=9.6,BA=5.68,STAT.F,ExtBa=13.07
25/11/2022,09:51:41,TEMP=10.6,BA=5.60,STAT.D=1.0,ExtBa=12.77
25/11/2022,10:04:42,TEMP=11.4,BA=5.68,STAT.D=1.0,ExtBa=12.99
25/11/2022,10:19:42,TEMP=12.1,BA=5.68,STAT.D=1.0,ExtBa=13.02
25/11/2022,10:34:44,TEMP=12.6,BA=5.68,STAT.F,ExtBa=13.03
25/11/2022,10:52:11,TEMP=12.9,BA=5.56,STAT.D=0.5,ExtBa=12.67
25/11/2022,11:04:42,TEMP=12.9,BA=5.68,STAT.D=1.0,ExtBa=12.94
25/11/2022,11:19:42,TEMP=13.3,BA=5.68,STAT.D=1.0,ExtBa=13.00
25/11/2022,11:34:44,TEMP=13.7,BA=5.68,STAT.F,ExtBa=12.95
25/11/2022,11:56:31,TEMP=13.7,BA=5.56,STAT.D=1.0,ExtBa=12.62
25/11/2022,12:04:43,TEMP=13.7,BA=5.68,STAT.D=1.0,ExtBa=12.80
25/11/2022,12:19:43,TEMP=14.1,BA=5.68,STAT.D=1.0,ExtBa=12.90
25/11/2022,12:34:44,TEMP=14.4,BA=5.68,STAT.F,ExtBa=12.91
25/11/2022,12:51:19,TEMP=14.2,BA=5.56,STAT.D=1.0,ExtBa=12.62
25/11/2022,13:04:42,TEMP=14.2,BA=5.68,STAT.D=1.0,ExtBa=12.86
25/11/2022,13:19:42,TEMP=14.4,BA=5.68,STAT.D=1.0,ExtBa=12.91
25/11/2022,13:34:44,TEMP=14.5,BA=5.68,STAT.F,ExtBa=12.92
25/11/2022,13:49:42,TEMP=14.0,BA=5.56,STAT.D=1.0,ExtBa=12.65
25/11/2022,14:04:42,TEMP=13.8,BA=5.68,STAT.D=1.0,ExtBa=12.87
25/11/2022,14:19:42,TEMP=12.9,BA=5.68,STAT.D=1.0,ExtBa=12.92
25/11/2022,14:34:44,TEMP=12.8,BA=5.68,STAT.F,ExtBa=12.92
25/11/2022,14:51:03,TEMP=12.9,BA=5.56,STAT.A=1.0,ExtBa=12.60